DAUU/OGX METAR and TAF weather

Enter ICAO airport designator
Station Type Date Time Source
DAUU METAR 2019/02/16 03:00 UTC NOAA

DAUU 160300Z 00000KT CAVOK 04/M10 Q1025


Station Type Date Time Source
DAUU Decoded METAR 2019/02/16 03:00 UTC NOAA

Ouargla, Algeria (DAUU) 31-55N 005-24E 141M
Feb 15, 2019 - 10:00 PM EST / 2019.02.16 0300 UTC
Wind: Calm:0
Visibility: greater than 7 mile(s):0
Temperature: 39 F (4 C)
Dew Point: 14 F (-10 C)
Relative Humidity: 35%
Pressure (altimeter): 30.27 in. Hg (1025 hPa)
ob: DAUU 160300Z 00000KT CAVOK 04/M10 Q1025
cycle: 3

Station Type Date Time Source
DAUU TAF 2017/11/09 18:03 UTC NOAA

TAF DAUU 091700Z 0918/1009 34012KT 9999 FEW040 SCT100 PROB40
TEMPO 0918/0924 34015G25KT 5000 -TSRA FEW036CB


Example: see airport list